Time;durP1;ratioP1;P1;durP2;ratioP2;P2;SDS_P1;SDS_P2;PMS_P1;PMS_P2;Temp;Humidity;BMP_temperature;BMP_pressure;BME280_temperature;BME280_humidity;BME280_pressure;Samples;Min_cycle;Max_cycle;Signal;HPM_P1;HPM_P2
2022/04/14 04:06:38;;;;;;;15.67;12.20;;;5.80;99.90;;;;;;4856479;29;20631;-75
2022/04/14 04:09:06;;;;;;;15.03;11.37;;;5.80;99.90;;;;;;4861990;29;20326;-75
2022/04/14 04:11:34;;;;;;;16.27;11.37;;;5.90;99.90;;;;;;4859261;29;20736;-76
2022/04/14 04:14:02;;;;;;;15.80;12.43;;;5.80;99.90;;;;;;4861831;29;20211;-74
2022/04/14 04:16:30;;;;;;;16.80;11.97;;;5.80;99.90;;;;;;4862351;29;20235;-76
2022/04/14 04:18:58;;;;;;;15.27;11.30;;;5.80;99.90;;;;;;4863203;29;20211;-77
2022/04/14 04:21:29;;;;;;;15.47;11.60;;;5.80;99.90;;;;;;4862459;29;20214;-75
2022/04/14 04:23:58;;;;;;;16.37;13.40;;;5.70;99.90;;;;;;4864443;29;20204;-73
2022/04/14 04:26:26;;;;;;;15.43;13.37;;;5.80;99.90;;;;;;4866264;29;20274;-74
2022/04/14 04:28:54;;;;;;;16.53;13.00;;;5.80;99.90;;;;;;4866594;29;20307;-74
2022/04/14 04:31:22;;;;;;;20.57;14.00;;;5.80;99.90;;;;;;4865854;29;20238;-73
2022/04/14 04:33:51;;;;;;;14.17;12.63;;;5.80;99.90;;;;;;4861183;29;20239;-75
2022/04/14 04:36:19;;;;;;;17.20;13.07;;;5.80;99.90;;;;;;4863088;29;20563;-75
2022/04/14 04:38:47;;;;;;;16.37;12.43;;;5.80;99.90;;;;;;4870907;29;20219;-75
2022/04/14 04:41:16;;;;;;;19.97;13.10;;;5.80;99.90;;;;;;4878660;29;20219;-78
2022/04/14 04:43:44;;;;;;;15.73;12.43;;;5.80;99.90;;;;;;4877512;29;20211;-75
2022/04/14 04:46:13;;;;;;;16.47;12.77;;;5.80;99.90;;;;;;4878890;29;20241;-76
2022/04/14 04:48:41;;;;;;;14.53;12.23;;;5.80;99.90;;;;;;4861275;29;20691;-75
2022/04/14 04:51:09;;;;;;;15.87;11.77;;;5.80;99.90;;;;;;4861300;29;20293;-74
2022/04/14 04:53:37;;;;;;;17.53;11.53;;;5.80;99.90;;;;;;4863893;29;20620;-74
2022/04/14 04:56:05;;;;;;;17.87;10.93;;;5.90;99.90;;;;;;4862081;29;20219;-76
2022/04/14 04:58:35;;;;;;;17.00;11.37;;;5.90;99.90;;;;;;4861440;29;20219;-75
2022/04/14 05:01:04;;;;;;;16.23;10.53;;;5.90;99.90;;;;;;4860501;29;20299;-76
2022/04/14 05:03:32;;;;;;;14.23;10.63;;;5.90;99.90;;;;;;4861513;29;20275;-77
2022/04/14 05:06:00;;;;;;;14.60;10.33;;;6.00;99.90;;;;;;4875114;29;20296;-75
2022/04/14 05:08:28;;;;;;;14.33;9.97;;;6.00;99.90;;;;;;4879451;29;20672;-76
2022/04/14 05:11:04;;;;;;;17.97;10.37;;;6.00;99.90;;;;;;4879642;29;20217;-75
2022/04/14 05:13:32;;;;;;;14.13;10.40;;;6.10;99.90;;;;;;4879704;29;20214;-77
2022/04/14 05:16:04;;;;;;;15.53;10.17;;;6.10;99.90;;;;;;4879949;29;20222;-78
2022/04/14 05:18:33;;;;;;;14.23;10.50;;;6.20;99.90;;;;;;4879014;29;20239;-75
2022/04/14 05:21:01;;;;;;;12.67;9.27;;;6.20;99.90;;;;;;4879309;29;20259;-77
2022/04/14 05:23:29;;;;;;;11.47;9.87;;;6.30;99.90;;;;;;4882368;29;20210;-77
2022/04/14 05:25:57;;;;;;;14.80;11.07;;;6.40;99.90;;;;;;4880875;29;20225;-73
2022/04/14 05:28:25;;;;;;;14.57;12.17;;;6.40;99.90;;;;;;4880086;29;20214;-77
2022/04/14 05:30:54;;;;;;;13.37;10.13;;;6.50;99.90;;;;;;4879653;29;20321;-75
2022/04/14 05:33:23;;;;;;;13.53;11.33;;;6.60;99.90;;;;;;4879914;29;20587;-75
2022/04/14 05:35:51;;;;;;;14.43;12.03;;;6.70;99.90;;;;;;4879680;29;20246;-76
2022/04/14 05:38:19;;;;;;;20.90;13.30;;;6.80;99.90;;;;;;4879867;29;20245;-75
2022/04/14 05:40:47;;;;;;;15.43;12.40;;;7.00;99.90;;;;;;4879677;29;20233;-76
2022/04/14 05:43:16;;;;;;;17.80;12.73;;;7.10;99.90;;;;;;4879712;29;20250;-77
2022/04/14 05:45:47;;;;;;;19.73;14.30;;;7.20;99.90;;;;;;4880335;29;20262;-76
2022/04/14 05:48:19;;;;;;;18.43;14.37;;;7.30;99.90;;;;;;4879306;29;20241;-75
2022/04/14 05:50:50;;;;;;;21.00;16.03;;;7.40;99.90;;;;;;4878939;29;20288;-78
2022/04/14 05:53:25;;;;;;;19.50;16.13;;;7.60;99.90;;;;;;4880205;29;20202;-75
2022/04/14 05:55:54;;;;;;;25.43;16.83;;;7.80;99.90;;;;;;4879160;29;20316;-76
2022/04/14 05:58:22;;;;;;;23.77;17.20;;;8.00;99.90;;;;;;4878958;29;20265;-74
2022/04/14 06:00:51;;;;;;;18.20;16.30;;;8.10;99.90;;;;;;4881360;29;20262;-76
2022/04/14 06:03:19;;;;;;;20.47;16.07;;;8.40;99.90;;;;;;4880186;29;20222;-76
2022/04/14 06:05:49;;;;;;;20.13;16.13;;;8.60;99.90;;;;;;4879745;29;20273;-74
2022/04/14 06:08:18;;;;;;;18.83;15.97;;;8.90;99.90;;;;;;4881395;29;20576;-74
2022/04/14 06:10:46;;;;;;;20.13;14.40;;;9.40;99.90;;;;;;4884944;29;20254;-76
2022/04/14 06:13:14;;;;;;;17.30;12.97;;;10.20;99.90;;;;;;4885068;29;20225;-76
2022/04/14 06:15:42;;;;;;;13.90;12.20;;;11.40;99.90;;;;;;4885027;29;20222;-77
2022/04/14 06:18:10;;;;;;;15.00;11.43;;;12.70;99.90;;;;;;4879328;29;20297;-78
2022/04/14 06:20:39;;;;;;;17.50;11.30;;;13.40;99.90;;;;;;4877523;29;20234;-75
2022/04/14 06:23:10;;;;;;;15.30;11.40;;;14.20;99.90;;;;;;4878745;29;20218;-75
2022/04/14 06:25:38;;;;;;;15.37;11.43;;;15.00;99.90;;;;;;4874706;29;20230;-77
2022/04/14 06:28:07;;;;;;;14.67;10.50;;;15.50;99.90;;;;;;4872555;29;20821;-75
2022/04/14 06:30:35;;;;;;;16.37;11.47;;;16.00;99.90;;;;;;4872861;29;20701;-75
2022/04/14 06:33:04;;;;;;;17.37;12.20;;;16.20;99.90;;;;;;4865664;29;20222;-74
2022/04/14 06:35:34;;;;;;;12.50;10.63;;;17.00;99.90;;;;;;4878443;29;20216;-73
2022/04/14 06:38:02;;;;;;;12.33;9.43;;;18.10;99.90;;;;;;4877763;29;20238;-75
2022/04/14 06:40:31;;;;;;;12.33;10.00;;;18.30;99.90;;;;;;4879221;29;20270;-74
2022/04/14 06:43:02;;;;;;;12.17;9.83;;;19.10;99.90;;;;;;4879269;29;20570;-77
2022/04/14 06:45:32;;;;;;;11.33;9.57;;;19.60;99.90;;;;;;4877623;29;20218;-76
2022/04/14 06:48:00;;;;;;;12.20;9.97;;;19.80;99.90;;;;;;4877896;29;20221;-76
2022/04/14 06:50:28;;;;;;;14.67;10.13;;;19.90;99.90;;;;;;4879299;29;20337;-73
2022/04/14 06:52:57;;;;;;;13.10;10.37;;;20.30;99.90;;;;;;4881169;29;20231;-74
2022/04/14 06:55:25;;;;;;;15.80;9.97;;;20.30;99.90;;;;;;4879513;29;20699;-76
2022/04/14 06:57:59;;;;;;;14.83;9.83;;;20.50;98.70;;;;;;4877951;29;20213;-74
2022/04/14 07:00:27;;;;;;;11.33;9.33;;;20.50;98.50;;;;;;4875691;29;20306;-77
2022/04/14 07:02:56;;;;;;;10.50;9.13;;;21.10;98.10;;;;;;4879234;29;20221;-77
2022/04/14 07:05:25;;;;;;;14.53;9.50;;;21.80;95.80;;;;;;4881551;29;20245;-75
2022/04/14 07:07:53;;;;;;;13.70;8.90;;;22.30;94.70;;;;;;4878521;29;20721;-77
2022/04/14 07:10:22;;;;;;;12.67;9.20;;;22.00;94.70;;;;;;4878548;29;20277;-77
2022/04/14 07:12:50;;;;;;;13.23;9.20;;;21.30;94.90;;;;;;4878601;29;20257;-76
2022/04/14 07:15:20;;;;;;;10.87;9.57;;;21.30;95.10;;;;;;4878348;29;20214;-76
2022/04/14 07:17:48;;;;;;;12.03;9.07;;;21.50;95.80;;;;;;4872948;29;20592;-76
2022/04/14 07:20:16;;;;;;;15.10;9.00;;;21.90;94.20;;;;;;4859547;29;20702;-75
2022/04/14 07:22:46;;;;;;;12.27;8.20;;;22.10;94.40;;;;;;4875184;29;20242;-73
2022/04/14 07:25:23;;;;;;;11.32;8.27;;;22.70;93.00;;;;;;4863709;29;20263;-75
2022/04/14 07:27:53;;;;;;;13.65;8.65;;;23.60;91.90;;;;;;4878016;29;20607;-74
2022/04/14 07:30:23;;;;;;;9.93;8.18;;;24.20;89.30;;;;;;4878094;29;20238;-75
2022/04/14 07:32:52;;;;;;;14.48;8.40;;;24.40;87.80;;;;;;4881426;29;20242;-76
2022/04/14 07:35:22;;;;;;;10.50;8.07;;;24.60;86.80;;;;;;4864381;29;20648;-76
2022/04/14 07:37:50;;;;;;;12.13;7.90;;;24.70;85.70;;;;;;4866442;29;20266;-74
2022/04/14 07:40:19;;;;;;;15.30;7.07;;;24.50;85.10;;;;;;4881176;29;20273;-74
2022/04/14 07:42:49;;;;;;;30.85;8.60;;;25.00;86.70;;;;;;4876246;29;20258;-76
2022/04/14 07:45:18;;;;;;;12.88;8.50;;;25.90;83.50;;;;;;4873601;29;20685;-75
2022/04/14 07:47:48;;;;;;;16.35;8.48;;;25.40;80.60;;;;;;4881377;29;20297;-75
2022/04/14 07:50:18;;;;;;;13.75;8.32;;;25.70;80.80;;;;;;4881454;29;20202;-75
2022/04/14 07:52:48;;;;;;;12.18;8.05;;;25.80;80.70;;;;;;4881251;29;20258;-75
2022/04/14 07:55:21;;;;;;;11.48;8.13;;;26.50;78.10;;;;;;4881692;29;20270;-77
2022/04/14 07:57:54;;;;;;;11.02;7.75;;;26.30;78.30;;;;;;4882138;29;20467;-74
2022/04/14 08:00:23;;;;;;;13.63;8.30;;;26.60;76.00;;;;;;4866431;29;20708;-76
2022/04/14 08:02:55;;;;;;;13.30;8.05;;;27.00;75.20;;;;;;4863286;29;20713;-76
2022/04/14 08:05:28;;;;;;;13.13;8.18;;;27.30;73.70;;;;;;4863594;29;20302;-74
2022/04/14 08:07:59;;;;;;;11.18;8.63;;;27.70;72.40;;;;;;4868263;29;20203;-76
2022/04/14 08:10:27;;;;;;;10.48;7.95;;;27.90;69.20;;;;;;4865457;29;20252;-75
2022/04/14 08:12:56;;;;;;;8.88;7.93;;;27.00;71.70;;;;;;4865677;29;20275;-75
2022/04/14 08:15:25;;;;;;;12.52;7.50;;;27.40;71.00;;;;;;4865877;29;20215;-75
2022/04/14 08:17:58;;;;;;;10.48;7.65;;;27.30;70.60;;;;;;4865824;29;20327;-75
2022/04/14 08:20:28;;;;;;;9.90;7.70;;;26.40;71.80;;;;;;4871303;29;20214;-74
2022/04/14 08:22:57;;;;;;;10.80;8.05;;;26.20;73.40;;;;;;4885047;29;20214;-75
2022/04/14 08:25:29;;;;;;;10.48;7.50;;;26.10;73.50;;;;;;4885824;29;20211;-74
2022/04/14 08:27:58;;;;;;;11.88;8.82;;;26.30;73.50;;;;;;4871029;29;20199;-74
2022/04/14 08:30:28;;;;;;;13.43;8.32;;;26.10;73.80;;;;;;4869359;29;20231;-76
2022/04/14 08:33:01;;;;;;;9.70;7.45;;;26.30;73.90;;;;;;4882772;29;20241;-77
2022/04/14 08:35:32;;;;;;;10.48;7.93;;;26.30;74.60;;;;;;4891044;29;20202;-76
2022/04/14 08:38:06;;;;;;;10.60;7.63;;;26.90;72.50;;;;;;4891838;29;20201;-75
2022/04/14 08:40:35;;;;;;;13.13;8.07;;;27.60;70.40;;;;;;4893633;29;20191;-75
2022/04/14 08:43:06;;;;;;;11.40;8.90;;;27.30;70.50;;;;;;4892866;29;20241;-75
2022/04/14 08:45:35;;;;;;;12.63;7.95;;;26.90;72.00;;;;;;4885653;29;20637;-75
2022/04/14 08:48:06;;;;;;;13.25;7.70;;;27.20;70.80;;;;;;4882663;29;20309;-77
2022/04/14 08:50:34;;;;;;;9.90;8.02;;;27.30;70.10;;;;;;4880632;29;20687;-78
2022/04/14 08:53:05;;;;;;;8.75;7.85;;;27.80;68.60;;;;;;4879829;29;20234;-76
2022/04/14 08:55:42;;;;;;;11.40;8.75;;;27.60;69.80;;;;;;4879003;29;20293;-78
2022/04/14 08:58:18;;;;;;;9.35;7.47;;;26.70;71.50;;;;;;4877817;29;20702;-75
2022/04/14 09:00:54;;;;;;;15.02;8.57;;;27.00;71.00;;;;;;4870222;29;20692;-74
2022/04/14 09:03:45;;;;;;;9.15;7.75;;;27.10;69.40;;;;;;4871481;29;20222;-76
2022/04/14 09:06:14;;;;;;;10.88;7.72;;;27.60;69.80;;;;;;4870067;29;20246;-74
2022/04/14 09:08:46;;;;;;;9.35;8.00;;;27.20;69.80;;;;;;4888021;29;20214;-74
2022/04/14 09:11:16;;;;;;;11.88;7.90;;;27.10;71.40;;;;;;4896739;29;20225;-76
2022/04/14 09:13:46;;;;;;;12.15;8.15;;;27.70;69.40;;;;;;4892574;29;20218;-76
2022/04/14 09:16:15;;;;;;;12.50;8.63;;;28.00;69.20;;;;;;4892770;29;20210;-75
2022/04/14 09:18:47;;;;;;;10.68;8.20;;;28.40;67.70;;;;;;4890133;29;20221;-74
2022/04/14 09:21:19;;;;;;;10.73;8.00;;;28.50;66.10;;;;;;4885768;29;20206;-75
2022/04/14 09:23:52;;;;;;;11.10;8.18;;;29.00;64.30;;;;;;4884172;29;20305;-74
2022/04/14 09:26:24;;;;;;;8.70;7.80;;;29.10;64.10;;;;;;4884587;29;20222;-74
2022/04/14 09:29:06;;;;;;;10.20;8.48;;;29.10;64.80;;;;;;4886801;29;20220;-76
2022/04/14 09:31:49;;;;;;;11.32;8.30;;;28.50;65.50;;;;;;4886334;29;20227;-75
2022/04/14 09:34:48;;;;;;;11.63;7.45;;;27.90;67.70;;;;;;4881623;29;20241;-78
2022/04/14 09:37:18;;;;;;;10.13;8.27;;;28.10;65.40;;;;;;4887288;29;20310;-78
2022/04/14 09:39:55;;;;;;;10.93;8.13;;;27.50;68.80;;;;;;4887024;29;20781;-75
2022/04/14 09:42:26;;;;;;;10.48;8.23;;;27.40;69.60;;;;;;4887667;29;20298;-76
2022/04/14 09:45:15;;;;;;;10.40;8.00;;;27.90;67.50;;;;;;4891836;29;20276;-74
2022/04/14 09:48:10;;;;;;;12.52;8.32;;;26.70;68.20;;;;;;4892906;29;20279;-76
2022/04/14 09:50:43;;;;;;;10.93;7.80;;;26.80;68.40;;;;;;4899554;29;20207;-76
2022/04/14 09:53:14;;;;;;;13.77;8.93;;;26.40;66.30;;;;;;4887560;29;20198;-78
2022/04/14 09:58:57;;;;;;;8.65;6.97;;;27.50;62.70;;;;;;4890780;29;20201;-77
2022/04/14 10:01:34;;;;;;;10.90;7.60;;;28.00;64.00;;;;;;4883654;29;20237;-75
2022/04/14 10:04:10;;;;;;;8.95;6.53;;;27.50;62.70;;;;;;4880472;29;20221;-75
2022/04/14 10:07:01;;;;;;;9.88;6.65;;;27.90;65.20;;;;;;4880175;29;20289;-75
2022/04/14 10:09:30;;;;;;;7.85;6.07;;;27.40;64.40;;;;;;4879231;29;20221;-74
2022/04/14 10:11:59;;;;;;;13.30;6.93;;;27.40;64.30;;;;;;4879245;29;20729;-76
2022/04/14 10:14:32;;;;;;;9.63;6.40;;;27.60;67.20;;;;;;4879271;29;20214;-78
2022/04/14 10:17:02;;;;;;;7.68;6.40;;;28.00;66.10;;;;;;4880733;29;20202;-79
2022/04/14 10:19:34;;;;;;;9.27;6.35;;;29.00;65.10;;;;;;4880695;29;20657;-76
2022/04/14 10:22:07;;;;;;;7.53;6.20;;;28.90;62.30;;;;;;4881536;29;20324;-76
2022/04/14 10:24:38;;;;;;;9.77;6.35;;;29.30;62.00;;;;;;4872592;29;20222;-76
2022/04/14 10:27:10;;;;;;;7.95;6.60;;;28.80;63.10;;;;;;4874028;29;20850;-75
2022/04/14 10:29:40;;;;;;;10.68;6.97;;;28.10;60.10;;;;;;4880216;29;20304;-74
2022/04/14 10:32:09;;;;;;;7.38;6.55;;;27.70;63.40;;;;;;4880046;29;20214;-78
2022/04/14 10:34:37;;;;;;;8.95;6.57;;;28.30;61.50;;;;;;4879602;29;20297;-77
2022/04/14 10:37:09;;;;;;;7.70;6.00;;;28.10;63.80;;;;;;4879910;29;20696;-75
2022/04/14 10:39:45;;;;;;;9.45;6.85;;;28.90;64.80;;;;;;4880143;29;20254;-76
2022/04/14 10:42:20;;;;;;;12.48;7.25;;;29.30;58.70;;;;;;4880516;29;20325;-75
2022/04/14 10:44:51;;;;;;;9.93;7.30;;;29.40;62.30;;;;;;4880890;29;20791;-74
2022/04/14 10:47:36;;;;;;;8.95;7.00;;;28.70;62.70;;;;;;4886932;29;20245;-75
2022/04/14 10:50:05;;;;;;;11.60;7.63;;;28.10;62.90;;;;;;4897906;29;20248;-77
2022/04/14 10:53:02;;;;;;;9.95;7.55;;;27.10;65.60;;;;;;4898695;29;20285;-77
2022/04/14 10:55:36;;;;;;;9.38;8.13;;;27.50;68.90;;;;;;4894432;29;20202;-77
2022/04/14 10:58:04;;;;;;;10.43;8.23;;;28.60;62.80;;;;;;4880580;29;20653;-75
2022/04/14 11:00:39;;;;;;;11.63;8.90;;;28.60;64.30;;;;;;4883769;29;20210;-73
2022/04/14 11:03:12;;;;;;;11.00;8.60;;;28.20;60.60;;;;;;4899159;29;20222;-76
2022/04/14 11:05:45;;;;;;;10.18;7.82;;;28.80;60.40;;;;;;4898185;29;20222;-75
2022/04/14 11:08:29;;;;;;;9.15;7.55;;;28.50;63.60;;;;;;4916507;29;20201;-75
2022/04/14 11:11:11;;;;;;;9.50;7.85;;;28.60;62.30;;;;;;4925538;29;20265;-76
2022/04/14 11:14:08;;;;;;;10.88;7.38;;;28.00;63.20;;;;;;4926646;29;20292;-76
2022/04/14 11:16:44;;;;;;;12.10;7.82;;;28.30;65.20;;;;;;4888165;29;20617;-75
2022/04/14 11:19:26;;;;;;;12.05;8.48;;;28.20;64.30;;;;;;4888347;29;20198;-75
2022/04/14 11:22:02;;;;;;;12.50;7.53;;;27.60;64.50;;;;;;4889109;29;20252;-75
2022/04/14 11:24:44;;;;;;;12.65;9.23;;;27.70;66.90;;;;;;4890458;29;20313;-75
2022/04/14 11:27:17;;;;;;;9.85;7.43;;;27.20;61.60;;;;;;4904980;29;20289;-76
2022/04/14 11:29:48;;;;;;;9.52;7.80;;;26.70;69.40;;;;;;4907325;29;20241;-75
2022/04/14 11:32:35;;;;;;;9.50;7.50;;;27.20;66.30;;;;;;4908450;29;20217;-78
2022/04/14 11:35:32;;;;;;;11.70;7.67;;;27.30;65.00;;;;;;4918166;29;20216;-76
2022/04/14 11:38:01;;;;;;;11.13;7.67;;;27.30;66.50;;;;;;4904517;29;20294;-75
2022/04/14 11:40:31;;;;;;;9.37;7.03;;;26.70;66.90;;;;;;4881950;29;20202;-74
2022/04/14 11:43:00;;;;;;;10.80;7.30;;;26.60;66.40;;;;;;4881883;29;20674;-74
2022/04/14 11:45:30;;;;;;;11.03;7.07;;;26.80;66.40;;;;;;4881687;29;20217;-73
2022/04/14 11:48:02;;;;;;;11.97;7.80;;;26.80;68.10;;;;;;4893133;29;20245;-74
2022/04/14 11:50:32;;;;;;;11.60;6.67;;;26.50;63.40;;;;;;4900467;29;20201;-76
2022/04/14 11:53:02;;;;;;;9.37;6.97;;;26.50;68.30;;;;;;4900987;29;20194;-75
2022/04/14 11:55:38;;;;;;;11.17;7.17;;;26.60;67.00;;;;;;4892046;29;20213;-74
2022/04/14 11:58:07;;;;;;;10.70;7.17;;;26.40;68.60;;;;;;4882413;29;20225;-74
2022/04/14 12:00:45;;;;;;;11.13;7.57;;;26.40;69.60;;;;;;4883544;29;20221;-73
2022/04/14 12:03:13;;;;;;;11.60;7.13;;;26.10;68.40;;;;;;4882231;29;20236;-75
2022/04/14 12:05:50;;;;;;;10.30;7.27;;;25.90;69.10;;;;;;4894506;29;20224;-73
2022/04/14 12:08:20;;;;;;;9.57;6.53;;;26.10;67.20;;;;;;4900546;29;20193;-73
2022/04/14 12:10:50;;;;;;;13.63;7.27;;;25.70;70.10;;;;;;4899629;29;20214;-73
2022/04/14 12:13:19;;;;;;;11.20;5.97;;;25.60;67.40;;;;;;4900398;29;20206;-75
2022/04/14 12:16:02;;;;;;;11.07;6.07;;;25.70;68.00;;;;;;4899908;29;20202;-73
2022/04/14 12:18:30;;;;;;;6.93;5.50;;;25.70;69.20;;;;;;4899765;29;20675;-74
2022/04/14 12:20:58;;;;;;;11.47;6.20;;;25.70;70.60;;;;;;4900270;29;20237;-74
2022/04/14 12:23:27;;;;;;;9.00;6.00;;;25.90;66.80;;;;;;4900055;29;20269;-72
2022/04/14 12:25:58;;;;;;;11.27;5.90;;;25.80;68.30;;;;;;4894642;29;20264;-75
2022/04/14 12:28:26;;;;;;;9.27;5.20;;;25.20;66.40;;;;;;4897344;29;20232;-74
2022/04/14 12:30:57;;;;;;;9.67;5.30;;;25.30;68.60;;;;;;4900664;29;20226;-73
2022/04/14 12:33:28;;;;;;;7.70;5.00;;;25.40;68.00;;;;;;4903995;29;20235;-74
2022/04/14 12:36:07;;;;;;;6.80;4.50;;;25.60;67.20;;;;;;4909548;29;20254;-74
2022/04/14 12:38:44;;;;;;;9.80;4.90;;;25.70;65.10;;;;;;4908349;29;20296;-77
2022/04/14 12:41:22;;;;;;;11.03;5.03;;;25.90;68.10;;;;;;4908705;29;20253;-75
2022/04/14 12:43:51;;;;;;;7.17;5.13;;;25.70;68.20;;;;;;4909853;29;20218;-77
2022/04/14 12:46:24;;;;;;;8.77;5.10;;;25.20;63.40;;;;;;4906564;29;20214;-78
2022/04/14 12:49:04;;;;;;;7.60;5.17;;;24.60;68.60;;;;;;4888912;29;20210;-76
2022/04/14 12:51:55;;;;;;;7.40;4.40;;;24.70;68.80;;;;;;4888056;29;20214;-74
2022/04/14 13:00:20;;;;;;;8.53;4.70;;;25.50;69.00;;;;;;4902849;29;20236;-76
2022/04/14 13:03:00;;;;;;;7.43;4.60;;;25.60;66.50;;;;;;4903239;29;20607;-76
2022/04/14 13:05:30;;;;;;;9.73;6.40;;;25.60;67.90;;;;;;4904897;29;20690;-76
2022/04/14 13:07:59;;;;;;;8.73;5.47;;;25.60;65.50;;;;;;4905899;29;20224;-76
2022/04/14 13:10:30;;;;;;;8.33;4.47;;;25.40;66.30;;;;;;4902900;29;20212;-76
2022/04/14 13:12:59;;;;;;;8.77;5.20;;;25.20;69.10;;;;;;4906362;29;20652;-75
2022/04/14 13:15:28;;;;;;;6.27;5.23;;;25.20;67.40;;;;;;4906783;29;20221;-74
2022/04/14 13:17:58;;;;;;;8.57;5.23;;;25.00;69.80;;;;;;4916172;29;20625;-76
2022/04/14 13:20:36;;;;;;;9.70;5.50;;;25.10;68.60;;;;;;4916650;29;20222;-77
2022/04/14 13:23:08;;;;;;;8.47;6.60;;;25.20;70.10;;;;;;4912543;29;20206;-74
2022/04/14 13:25:37;;;;;;;11.47;6.20;;;25.20;67.40;;;;;;4908580;29;20245;-76
2022/04/14 13:28:08;;;;;;;11.93;5.80;;;25.10;70.80;;;;;;4907301;29;20205;-74
2022/04/14 13:30:41;;;;;;;10.43;6.30;;;25.00;71.80;;;;;;4899140;29;20221;-74
2022/04/14 13:33:11;;;;;;;10.73;5.93;;;25.20;70.70;;;;;;4909983;29;20209;-75
2022/04/14 13:35:40;;;;;;;9.53;6.07;;;25.20;70.60;;;;;;4908904;29;20210;-76
2022/04/14 13:38:08;;;;;;;8.50;6.40;;;25.20;70.40;;;;;;4908844;29;20248;-75
2022/04/14 13:40:38;;;;;;;10.40;6.30;;;25.00;71.50;;;;;;4909327;29;20205;-75
2022/04/14 13:43:10;;;;;;;9.93;6.20;;;25.10;70.20;;;;;;4908678;29;20213;-74
2022/04/14 13:45:38;;;;;;;8.97;6.77;;;25.10;72.60;;;;;;4907924;29;20229;-72
2022/04/14 13:48:06;;;;;;;8.23;6.37;;;25.10;74.20;;;;;;4908445;29;20221;-75
2022/04/14 13:50:43;;;;;;;8.10;7.10;;;24.90;70.80;;;;;;4910005;29;20691;-75
2022/04/14 13:53:13;;;;;;;10.83;5.70;;;24.90;72.00;;;;;;4909206;29;20248;-75
2022/04/14 13:55:42;;;;;;;10.40;5.83;;;24.90;74.40;;;;;;4908110;29;20315;-74
2022/04/14 13:58:15;;;;;;;8.63;6.37;;;25.00;73.00;;;;;;4908693;29;20210;-75
2022/04/14 14:00:44;;;;;;;10.23;6.00;;;24.60;70.40;;;;;;4910336;29;20205;-76
2022/04/14 14:03:13;;;;;;;9.13;6.10;;;24.50;71.20;;;;;;4900632;29;20249;-75
2022/04/14 14:05:41;;;;;;;8.67;6.07;;;24.70;73.30;;;;;;4898293;29;20651;-76
2022/04/14 14:08:09;;;;;;;12.17;6.47;;;24.80;73.40;;;;;;4898811;29;20693;-74
2022/04/14 14:10:37;;;;;;;13.93;6.17;;;24.90;72.50;;;;;;4898578;29;20213;-75
2022/04/14 14:13:06;;;;;;;9.47;6.57;;;25.00;71.90;;;;;;4898430;29;20595;-76
2022/04/14 14:15:36;;;;;;;10.87;6.33;;;25.00;71.60;;;;;;4898212;29;20269;-74
2022/04/14 14:18:06;;;;;;;11.07;6.40;;;24.90;71.40;;;;;;4897792;29;20217;-75
2022/04/14 14:20:35;;;;;;;11.37;6.27;;;24.90;70.90;;;;;;4894740;29;20249;-77
2022/04/14 14:23:04;;;;;;;9.20;6.00;;;24.80;72.20;;;;;;4879822;29;20218;-75
2022/04/14 14:25:36;;;;;;;8.50;6.20;;;24.90;74.30;;;;;;4879209;29;20341;-75
2022/04/14 14:28:06;;;;;;;9.10;6.60;;;24.90;74.40;;;;;;4878864;29;20214;-77
2022/04/14 14:30:36;;;;;;;9.77;6.30;;;24.80;71.10;;;;;;4879125;29;20246;-75
2022/04/14 14:33:06;;;;;;;11.83;6.60;;;24.90;71.70;;;;;;4879583;29;20199;-77
2022/04/14 14:35:35;;;;;;;8.03;5.93;;;24.80;68.50;;;;;;4879127;29;20194;-76
2022/04/14 14:38:05;;;;;;;7.30;5.30;;;24.70;69.70;;;;;;4880455;29;20265;-73
2022/04/14 14:40:34;;;;;;;8.90;5.43;;;24.70;69.60;;;;;;4882098;29;20237;-76
2022/04/14 14:43:02;;;;;;;10.63;5.83;;;24.60;65.70;;;;;;4881918;29;20202;-76
2022/04/14 14:45:32;;;;;;;9.83;5.67;;;24.60;68.70;;;;;;4882691;29;20805;-76
2022/04/14 14:48:01;;;;;;;8.63;5.80;;;24.60;68.90;;;;;;4882272;29;20275;-75
2022/04/14 14:50:29;;;;;;;9.40;5.90;;;24.80;67.50;;;;;;4882422;29;20218;-77
2022/04/14 14:52:58;;;;;;;12.03;7.10;;;24.80;68.10;;;;;;4882658;29;20256;-75
2022/04/14 14:55:27;;;;;;;8.67;6.27;;;24.60;67.20;;;;;;4882537;29;20217;-75
2022/04/14 15:00:40;;;;;;;10.60;5.57;;;24.20;68.40;;;;;;4882436;29;20245;-77
2022/04/14 15:03:10;;;;;;;8.23;5.40;;;23.70;69.60;;;;;;4882080;29;20225;-75
2022/04/14 15:05:38;;;;;;;7.43;5.37;;;23.60;68.60;;;;;;4882261;29;20276;-77
2022/04/14 15:08:07;;;;;;;7.47;4.87;;;23.50;68.50;;;;;;4894031;29;20289;-76
2022/04/14 15:10:36;;;;;;;8.83;4.40;;;23.50;67.50;;;;;;4900776;29;20224;-75
2022/04/14 15:13:06;;;;;;;9.57;5.07;;;23.40;68.90;;;;;;4901422;29;20217;-76
2022/04/14 15:15:36;;;;;;;13.77;5.10;;;23.30;67.40;;;;;;4902363;29;20586;-76
2022/04/14 15:18:06;;;;;;;5.80;3.90;;;23.30;65.90;;;;;;4901035;29;20224;-76
2022/04/14 15:20:36;;;;;;;6.80;4.10;;;23.20;66.70;;;;;;4899839;29;20209;-76
2022/04/14 15:23:06;;;;;;;8.77;3.90;;;23.40;66.00;;;;;;4900806;29;20308;-75
2022/04/14 15:25:35;;;;;;;7.60;4.10;;;23.40;67.50;;;;;;4899506;29;20285;-76
2022/04/14 15:28:05;;;;;;;7.10;3.50;;;23.40;67.00;;;;;;4899777;29;20216;-77
2022/04/14 15:30:33;;;;;;;4.23;3.20;;;23.40;64.60;;;;;;4900082;29;20272;-75
2022/04/14 15:33:01;;;;;;;6.33;3.40;;;23.40;64.70;;;;;;4898741;29;20213;-78
2022/04/14 15:35:30;;;;;;;6.37;4.10;;;23.40;65.90;;;;;;4899555;29;20209;-75
2022/04/14 15:37:59;;;;;;;5.90;3.57;;;23.40;66.30;;;;;;4899735;29;20432;-78
2022/04/14 15:40:28;;;;;;;6.57;3.97;;;23.20;67.80;;;;;;4899640;29;20586;-76
2022/04/14 15:42:56;;;;;;;6.87;4.00;;;23.30;68.00;;;;;;4898869;29;20213;-77
2022/04/14 15:45:25;;;;;;;7.60;4.10;;;23.30;67.90;;;;;;4899395;29;20742;-78
2022/04/14 15:47:55;;;;;;;5.47;4.23;;;23.10;69.00;;;;;;4899756;29;20225;-78
2022/04/14 15:50:23;;;;;;;9.60;5.00;;;23.10;69.60;;;;;;4898817;29;20269;-76
2022/04/14 15:52:52;;;;;;;6.10;4.70;;;22.90;69.80;;;;;;4899034;29;20236;-77
2022/04/14 15:55:22;;;;;;;8.60;5.77;;;22.80;70.80;;;;;;4897943;29;20569;-77
2022/04/14 15:57:50;;;;;;;7.83;4.93;;;22.90;71.30;;;;;;4899546;29;20342;-77
2022/04/14 16:00:20;;;;;;;8.43;4.93;;;22.80;74.40;;;;;;4899058;29;20293;-77
2022/04/14 16:02:49;;;;;;;9.68;5.25;;;22.80;75.30;;;;;;4898562;29;20996;-77
2022/04/14 16:05:18;;;;;;;8.50;4.90;;;22.80;74.80;;;;;;4898631;29;20332;-76
2022/04/14 16:07:47;;;;;;;10.10;4.20;;;22.70;72.60;;;;;;4898972;29;20246;-77
2022/04/14 16:13:05;;;;;;;8.00;4.07;;;22.70;71.70;;;;;;4899266;29;20197;-76
2022/04/14 16:15:34;;;;;;;12.33;4.30;;;22.60;72.60;;;;;;4898766;29;20251;-77
2022/04/14 16:18:03;;;;;;;10.20;4.50;;;22.50;73.60;;;;;;4899176;29;20241;-77
2022/04/14 16:20:32;;;;;;;7.43;4.30;;;22.30;71.10;;;;;;4899185;29;20213;-78
2022/04/14 16:23:00;;;;;;;7.47;4.17;;;22.20;70.50;;;;;;4898731;29;20304;-75
2022/04/14 16:25:29;;;;;;;6.50;3.70;;;22.10;71.00;;;;;;4898737;29;20246;-76
2022/04/14 16:27:59;;;;;;;6.63;3.67;;;22.00;70.80;;;;;;4898655;29;20213;-76
2022/04/14 16:30:29;;;;;;;8.13;3.87;;;21.90;71.00;;;;;;4897859;29;20280;-77
2022/04/14 16:32:57;;;;;;;6.33;3.70;;;21.70;72.70;;;;;;4900016;29;20220;-75
2022/04/14 16:35:27;;;;;;;5.40;3.67;;;21.60;72.10;;;;;;4899152;29;20216;-77
2022/04/14 16:37:58;;;;;;;6.43;3.80;;;21.40;72.70;;;;;;4900873;29;20550;-76
2022/04/14 16:40:28;;;;;;;7.83;3.50;;;21.30;72.60;;;;;;4898623;29;20622;-77
2022/04/14 16:42:57;;;;;;;5.70;3.60;;;21.20;73.40;;;;;;4899223;29;20221;-78
2022/04/14 16:45:28;;;;;;;3.93;3.33;;;21.00;72.80;;;;;;4898898;29;20348;-77
2022/04/14 16:47:56;;;;;;;6.63;3.80;;;20.90;73.30;;;;;;4899117;29;20549;-76
2022/04/14 16:50:25;;;;;;;9.03;3.70;;;20.80;74.00;;;;;;4899118;29;20613;-76
2022/04/14 16:52:54;;;;;;;6.40;3.90;;;20.70;74.80;;;;;;4899261;29;20586;-77
2022/04/14 16:55:23;;;;;;;8.73;3.57;;;20.60;75.70;;;;;;4899762;29;20668;-77
2022/04/14 16:57:51;;;;;;;11.33;4.03;;;20.50;76.10;;;;;;4898733;29;20567;-79
2022/04/14 17:00:20;;;;;;;9.30;4.23;;;20.40;77.80;;;;;;4899215;29;20235;-76
2022/04/14 17:02:50;;;;;;;11.10;4.07;;;20.30;77.10;;;;;;4899045;29;20217;-76
2022/04/14 17:05:19;;;;;;;7.83;3.97;;;20.30;79.00;;;;;;4897692;29;20765;-78
2022/04/14 17:07:47;;;;;;;5.50;3.97;;;20.20;78.40;;;;;;4899028;29;20240;-77
2022/04/14 17:10:15;;;;;;;6.70;4.20;;;20.30;78.20;;;;;;4898307;29;20237;-78
2022/04/14 17:12:43;;;;;;;5.70;4.00;;;20.20;78.50;;;;;;4899177;29;20248;-78
2022/04/14 17:15:11;;;;;;;6.80;3.80;;;20.20;79.20;;;;;;4897931;29;20214;-78
2022/04/14 17:17:40;;;;;;;10.27;4.37;;;20.30;78.80;;;;;;4898582;29;20297;-75
2022/04/14 17:20:10;;;;;;;6.20;4.20;;;20.20;78.60;;;;;;4898417;29;20289;-75